Red Wing, Minnesota
Current Conditions -  °F | °C
As of 6:50 AM on Saturday 22 Nov 2014 (Local Time) from KRGK Reporting Station
Haze Haze  
Wind Chill:   Ceiling: NA
Heat Index:   Visibility: 4mi
Dew Point:   Wind: 3mph
Humidity: 93%   Direction: 210°SSW
Pressure: 29.81"   Gusts: NA
Location:  44.57°N, 92.53°W
Report Text: KRGK 221250Z AUTO 21003KT 4SM BR 02/01 A2981 RMK AO2
Loading
Personal Weather Stations






























Interactive Weather Map New forecast layout! Learn more

10-Day Weather Forecast

Advertisements
Track Severe Weather on mobile